createdAt,value
2022-09-23T00:01:15.090Z,99894.91
2022-09-23T00:03:44.991Z,99903.19
2022-09-23T00:06:19.736Z,99900.97
2022-09-23T00:08:46.748Z,99905.06
2022-09-23T00:11:16.137Z,99902.91
2022-09-23T00:13:45.841Z,99899.56
2022-09-23T00:16:16.087Z,99901.50
2022-09-23T00:18:43.406Z,99909.53
2022-09-23T00:21:13.315Z,99907.84
2022-09-23T00:23:43.452Z,99910.59
2022-09-23T00:26:13.427Z,99907.03
2022-09-23T00:28:40.685Z,99907.31
2022-09-23T00:31:13.218Z,99897.38
2022-09-23T00:33:40.830Z,99906.22
2022-09-23T00:36:11.139Z,99905.94
2022-09-23T00:38:38.865Z,99901.50
2022-09-23T00:41:06.535Z,99900.44
2022-09-23T00:43:45.483Z,99902.91
2022-09-23T00:46:19.010Z,99890.75
2022-09-23T00:48:47.326Z,99894.91
2022-09-23T00:51:18.094Z,99890.22
2022-09-23T00:53:48.565Z,99896.81
2022-09-23T00:56:15.861Z,99889.41
2022-09-23T00:58:45.367Z,99885.75
2022-09-23T01:01:13.983Z,99890.75
2022-09-23T01:03:44.461Z,99891.56
2022-09-23T01:06:11.399Z,99883.00
2022-09-23T01:08:38.184Z,99883.81
2022-09-23T01:11:23.338Z,99884.09
2022-09-23T01:14:23.815Z,99897.06
2022-09-23T01:17:19.721Z,99903.13
2022-09-23T01:20:24.418Z,99894.31
2022-09-23T01:23:09.593Z,99890.13
2022-09-23T01:25:42.056Z,99895.97
2022-09-23T01:28:45.584Z,99895.13
2022-09-23T01:31:37.866Z,99899.50
2022-09-23T01:34:31.556Z,99898.41
2022-09-23T01:37:18.679Z,99900.03
2022-09-23T01:40:01.768Z,99905.31
2022-09-23T01:42:34.536Z,99903.91
2022-09-23T01:45:16.219Z,99892.34
2022-09-23T01:47:58.486Z,99897.88
2022-09-23T01:50:57.553Z,99886.25
2022-09-23T01:53:30.983Z,99890.66
2022-09-23T01:56:03.536Z,99889.31
2022-09-23T01:58:50.806Z,99881.03
2022-09-23T02:01:20.711Z,99884.34
2022-09-23T02:03:59.681Z,99890.66
2022-09-23T02:06:50.789Z,99886.84
2022-09-23T02:09:25.570Z,99891.78
2022-09-23T02:11:58.911Z,99894.84
2022-09-23T02:14:32.233Z,99890.97
2022-09-23T02:17:03.417Z,99882.16
2022-09-23T02:19:52.685Z,99884.09
2022-09-23T02:22:40.934Z,99886.84
2022-09-23T02:25:09.774Z,99888.75
2022-09-23T02:28:01.603Z,99885.16
2022-09-23T02:30:45.106Z,99885.75
2022-09-23T02:33:20.630Z,99888.22
2022-09-23T02:36:07.193Z,99887.94
2022-09-23T02:38:37.204Z,99886.56
2022-09-23T02:41:10.933Z,99893.44
2022-09-23T02:43:45.762Z,99884.09
2022-09-23T02:46:12.585Z,99892.34
2022-09-23T02:49:17.590Z,99880.75
2022-09-23T02:51:45.507Z,99882.97
2022-09-23T02:54:15.903Z,99890.41
2022-09-23T02:56:42.732Z,99889.03
2022-09-23T02:59:10.582Z,99886.84
2022-09-23T03:02:05.695Z,99889.53
2022-09-23T03:04:47.307Z,99894.22
2022-09-23T03:07:19.620Z,99895.63
2022-09-23T03:09:52.034Z,99900.31
2022-09-23T03:12:38.844Z,99897.81
2022-09-23T03:15:18.594Z,99893.09
2022-09-23T03:18:07.678Z,99898.38
2022-09-23T03:20:53.596Z,99890.94
2022-09-23T03:23:26.252Z,99903.19
2022-09-23T03:25:56.109Z,99906.47
2022-09-23T03:28:24.978Z,99904.81
2022-09-23T03:30:54.516Z,99903.66
2022-09-23T03:33:28.791Z,99906.97
2022-09-23T03:36:23.933Z,99914.34
2022-09-23T03:38:55.583Z,99910.75
2022-09-23T03:41:30.159Z,99910.78
2022-09-23T03:44:02.372Z,99914.00
2022-09-23T03:46:30.304Z,99910.16
2022-09-23T03:49:06.498Z,99904.03
2022-09-23T03:51:33.159Z,99904.94
2022-09-23T03:53:59.904Z,99907.41
2022-09-23T03:56:26.780Z,99911.22
2022-09-23T03:58:53.439Z,99912.22
2022-09-23T04:01:20.096Z,99911.59
2022-09-23T04:03:46.804Z,99910.41
2022-09-23T04:06:13.749Z,99912.03
2022-09-23T04:08:40.609Z,99916.78
2022-09-23T04:11:08.054Z,99915.97
2022-09-23T04:13:34.698Z,99910.75
2022-09-23T04:16:01.740Z,99916.56
2022-09-23T04:18:28.467Z,99917.63
2022-09-23T04:21:03.953Z,99913.25
2022-09-23T04:23:30.631Z,99911.84
2022-09-23T04:25:57.302Z,99917.34
2022-09-23T04:28:24.035Z,99914.09
2022-09-23T04:30:50.683Z,99913.25
2022-09-23T04:33:17.365Z,99910.53
2022-09-23T04:35:44.301Z,99914.38
2022-09-23T04:38:12.688Z,99910.53
2022-09-23T04:40:39.632Z,99902.78
2022-09-23T04:43:09.492Z,99903.91
2022-09-23T04:45:37.260Z,99902.75
2022-09-23T04:48:04.097Z,99906.94
2022-09-23T04:50:33.975Z,99910.94
2022-09-23T04:53:01.003Z,99903.53
2022-09-23T04:55:28.138Z,99902.66
2022-09-23T04:57:56.352Z,99899.91
2022-09-23T05:00:28.799Z,99899.06
2022-09-23T05:02:55.619Z,99898.75
2022-09-23T05:05:23.715Z,99900.94
2022-09-23T05:07:51.391Z,99889.38
2022-09-23T05:10:18.650Z,99899.78
2022-09-23T05:12:45.431Z,99895.97
2022-09-23T05:15:16.175Z,99895.16
2022-09-23T05:17:43.295Z,99892.03
2022-09-23T05:20:12.727Z,99913.16
2022-09-23T05:22:39.382Z,99910.19
2022-09-23T05:25:06.386Z,99909.06
2022-09-23T05:27:33.038Z,99914.78
2022-09-23T05:30:01.127Z,99917.22
2022-09-23T05:32:27.997Z,99915.91
2022-09-23T05:34:55.772Z,99919.22
2022-09-23T05:37:23.112Z,99914.25
2022-09-23T05:39:49.782Z,99923.03
2022-09-23T05:42:18.278Z,99926.63
2022-09-23T05:44:44.935Z,99924.09
2022-09-23T05:47:11.533Z,99928.28
2022-09-23T05:49:58.604Z,99930.25
2022-09-23T05:52:26.021Z,99927.22
2022-09-23T05:54:53.790Z,99931.34
2022-09-23T05:57:21.464Z,99934.91
2022-09-23T05:59:48.068Z,99930.44
2022-09-23T06:02:15.268Z,99931.78
2022-09-23T06:04:42.822Z,99936.78
2022-09-23T06:07:10.038Z,99933.25
2022-09-23T06:09:37.025Z,99938.22
2022-09-23T06:12:04.589Z,99943.72
2022-09-23T06:14:31.183Z,99944.78
2022-09-23T06:16:57.800Z,99942.56
2022-09-23T06:19:24.480Z,99940.91
2022-09-23T06:21:51.119Z,99942.28
2022-09-23T06:24:20.801Z,99949.16
2022-09-23T06:26:49.883Z,99942.34
2022-09-23T06:29:18.260Z,99948.06
2022-09-23T06:31:45.048Z,99950.00
2022-09-23T06:34:14.611Z,99963.56
2022-09-23T06:36:44.911Z,99962.47
2022-09-23T06:39:16.404Z,99957.50
2022-09-23T06:41:44.336Z,99965.25
2022-09-23T06:44:11.060Z,99974.78
2022-09-23T06:46:37.772Z,99968.53
2022-09-23T06:49:04.510Z,99975.03
2022-09-23T06:51:31.163Z,99970.06
2022-09-23T06:53:57.802Z,99975.72
2022-09-23T06:56:24.813Z,99981.41
2022-09-23T06:58:52.661Z,99983.59
2022-09-23T07:01:19.932Z,99985.97
2022-09-23T07:03:48.506Z,99988.88
2022-09-23T07:06:15.911Z,99994.09
2022-09-23T07:08:44.814Z,99995.00
2022-09-23T07:11:13.305Z,99991.72
2022-09-23T07:13:42.116Z,99990.09
2022-09-23T07:16:09.982Z,99984.88
2022-09-23T07:18:37.690Z,99992.31
2022-09-23T07:21:17.076Z,99984.97
2022-09-23T07:23:50.092Z,99985.84
2022-09-23T07:26:18.985Z,99992.72
2022-09-23T07:28:46.143Z,99996.16
2022-09-23T07:31:16.727Z,99996.16
2022-09-23T07:33:45.929Z,99999.84
2022-09-23T07:36:18.700Z,99997.56
2022-09-23T07:38:47.452Z,99998.97
2022-09-23T07:41:19.009Z,100006.44
2022-09-23T07:43:46.989Z,100009.78
2022-09-23T07:46:19.713Z,100004.78
2022-09-23T07:48:47.194Z,100020.19
2022-09-23T07:51:18.827Z,100011.41
2022-09-23T07:53:49.514Z,100007.63
2022-09-23T07:56:16.417Z,100017.34
2022-09-23T07:58:43.247Z,100028.66
2022-09-23T08:01:12.049Z,100014.53
2022-09-23T08:03:40.550Z,100016.47
2022-09-23T08:06:14.948Z,100022.56
2022-09-23T08:08:44.702Z,100020.13
2022-09-23T08:11:14.287Z,100022.88
2022-09-23T08:13:41.560Z,100036.56
2022-09-23T08:16:11.133Z,100023.72
2022-09-23T08:18:37.886Z,100026.56
2022-09-23T08:21:04.635Z,100028.84
2022-09-23T08:23:33.663Z,100037.66
2022-09-23T08:26:05.531Z,100037.72
2022-09-23T08:28:36.051Z,100054.25
2022-09-23T08:31:03.014Z,100037.72
2022-09-23T08:33:30.228Z,100042.22
2022-09-23T08:36:03.855Z,100046.63
2022-09-23T08:38:30.568Z,100047.78
2022-09-23T08:41:06.691Z,100050.56
2022-09-23T08:43:36.278Z,100061.06
2022-09-23T08:46:06.282Z,100066.56
2022-09-23T08:48:44.019Z,100060.56
2022-09-23T08:51:15.371Z,100057.56
2022-09-23T08:53:43.062Z,100057.56
2022-09-23T08:56:15.127Z,100066.97
2022-09-23T08:59:04.205Z,100050.72
2022-09-23T09:01:45.402Z,100055.16
2022-09-23T09:04:30.124Z,100066.75
2022-09-23T09:10:06.695Z,100059.28
2022-09-23T09:12:44.544Z,100063.97
2022-09-23T09:15:14.635Z,100048.56
2022-09-23T09:17:48.540Z,100045.22
2022-09-23T09:20:16.870Z,100053.50
2022-09-23T09:22:51.340Z,100051.88
2022-09-23T09:25:24.285Z,100049.97
2022-09-23T09:27:52.726Z,100049.44
2022-09-23T09:30:19.980Z,100055.25
2022-09-23T09:33:02.089Z,100054.13
2022-09-23T09:36:01.111Z,100045.34
2022-09-23T09:38:28.303Z,100044.22
2022-09-23T09:40:55.972Z,100058.56
2022-09-23T09:43:25.702Z,100047.53
2022-09-23T09:46:08.439Z,100044.81
2022-09-23T09:48:40.946Z,100040.94
2022-09-23T09:51:20.533Z,100034.91
2022-09-23T09:53:48.227Z,100031.31
2022-09-23T09:56:21.100Z,100031.34
2022-09-23T09:58:55.286Z,100031.34
2022-09-23T10:01:28.784Z,100024.72
2022-09-23T10:03:59.477Z,100034.38
2022-09-23T10:06:32.616Z,100033.03
2022-09-23T10:09:02.244Z,100031.66
2022-09-23T10:11:30.341Z,100020.34
2022-09-23T10:14:02.967Z,100018.44
2022-09-23T10:16:31.894Z,100027.81
2022-09-23T10:19:13.089Z,100018.13
2022-09-23T10:21:43.322Z,100021.16
2022-09-23T10:24:22.460Z,100005.69
2022-09-23T10:27:17.040Z,100021.19
2022-09-23T10:29:50.633Z,100007.34
2022-09-23T10:32:25.780Z,100019.25
2022-09-23T10:34:55.461Z,100041.63
2022-09-23T10:37:40.740Z,100011.50
2022-09-23T10:40:50.890Z,100020.06
2022-09-23T10:44:04.498Z,100007.91
2022-09-23T10:46:41.496Z,99997.66
2022-09-23T10:49:31.037Z,99994.34
2022-09-23T10:52:06.751Z,100007.88
2022-09-23T10:54:42.422Z,99998.97
2022-09-23T10:57:47.978Z,100000.66
2022-09-23T11:00:22.346Z,99997.91
2022-09-23T11:03:02.991Z,100006.97
2022-09-23T11:06:04.312Z,100000.63
2022-09-23T11:09:05.085Z,100005.06
2022-09-23T11:12:09.425Z,100019.47
2022-09-23T11:14:43.987Z,100004.50
2022-09-23T11:17:32.278Z,100004.25
2022-09-23T11:20:21.303Z,99998.69
2022-09-23T11:23:15.115Z,100002.81
2022-09-23T11:26:05.351Z,99991.47
2022-09-23T11:28:55.212Z,99991.72
2022-09-23T11:31:31.524Z,99993.91
2022-09-23T11:34:28.662Z,99988.34
2022-09-23T11:37:15.556Z,99997.72
2022-09-23T11:39:55.443Z,99998.44
2022-09-23T11:42:28.934Z,99999.91
2022-09-23T11:45:09.852Z,99996.66
2022-09-23T11:47:45.736Z,99988.94
2022-09-23T11:50:29.591Z,99995.88
2022-09-23T11:53:22.963Z,99989.13
2022-09-23T11:56:01.041Z,99981.59
2022-09-23T11:58:34.920Z,99982.28
2022-09-23T12:01:10.023Z,99985.50
2022-09-23T12:03:44.762Z,99986.88
2022-09-23T12:06:22.987Z,99986.34
2022-09-23T12:08:57.877Z,99993.78
2022-09-23T12:11:36.238Z,99984.31
2022-09-23T12:14:17.837Z,99982.31
2022-09-23T12:16:58.140Z,99974.28
2022-09-23T12:19:33.245Z,99983.13
2022-09-23T12:22:18.747Z,99982.13
2022-09-23T12:25:22.960Z,99976.81
2022-09-23T12:27:55.344Z,99973.78
2022-09-23T12:30:30.273Z,99978.97
2022-09-23T12:33:16.503Z,99964.53
2022-09-23T12:35:46.062Z,99971.72
2022-09-23T12:38:21.696Z,99966.50
2022-09-23T12:40:48.920Z,99977.13
2022-09-23T12:43:37.187Z,99968.13
2022-09-23T12:46:28.223Z,99956.41
2022-09-23T12:48:58.108Z,99970.50
2022-09-23T12:52:07.494Z,99965.28
2022-09-23T12:54:34.196Z,99961.06
2022-09-23T12:57:02.311Z,99946.56
2022-09-23T12:59:56.027Z,99942.94
2022-09-23T13:03:12.169Z,99953.50
2022-09-23T13:06:11.126Z,99945.75
2022-09-23T13:08:41.554Z,99951.25
2022-09-23T13:11:21.332Z,99944.00
2022-09-23T13:13:50.116Z,99948.47
2022-09-23T13:16:30.988Z,99946.41
2022-09-23T13:18:59.013Z,99946.41
2022-09-23T13:21:54.775Z,99933.53
2022-09-23T13:24:33.180Z,99934.63
2022-09-23T13:27:02.663Z,99940.66
2022-09-23T13:29:44.396Z,99932.88
2022-09-23T13:32:19.622Z,99944.19
2022-09-23T13:35:00.211Z,99935.75
2022-09-23T13:37:37.440Z,99935.69
2022-09-23T13:40:25.524Z,99919.81
2022-09-23T13:43:19.679Z,99930.91
2022-09-23T13:45:46.398Z,99932.41
2022-09-23T13:48:15.521Z,99930.41
2022-09-23T13:50:49.335Z,99928.88
2022-09-23T13:53:28.277Z,99923.34
2022-09-23T13:56:04.048Z,99924.97
2022-09-23T13:58:32.742Z,99921.88
2022-09-23T14:01:01.324Z,99918.00
2022-09-23T14:03:36.889Z,99919.13
2022-09-23T14:06:16.283Z,99921.94
2022-09-23T14:08:48.955Z,99927.47
2022-09-23T14:11:22.354Z,99929.00
2022-09-23T14:13:54.235Z,99923.78
2022-09-23T14:16:26.809Z,99921.53
2022-09-23T14:18:59.503Z,99920.38
2022-09-23T14:21:38.324Z,99919.28
2022-09-23T14:24:13.892Z,99919.69
2022-09-23T14:26:43.021Z,99910.75
2022-09-23T14:29:18.467Z,99913.84
2022-09-23T14:31:57.059Z,99913.19
2022-09-23T14:34:42.535Z,99916.34
2022-09-23T14:37:44.243Z,99914.63
2022-09-23T14:40:22.362Z,99904.69
2022-09-23T14:42:52.202Z,99917.59
2022-09-23T14:45:24.165Z,99913.00
2022-09-23T14:47:56.742Z,99915.56
2022-09-23T14:50:47.311Z,99918.41
2022-09-23T14:53:20.046Z,99907.00
2022-09-23T14:55:48.618Z,99907.41
2022-09-23T14:58:17.264Z,99911.56
2022-09-23T15:00:57.932Z,99903.56
2022-09-23T15:03:25.453Z,99902.19
2022-09-23T15:06:09.277Z,99909.38
2022-09-23T15:08:36.146Z,99906.00
2022-09-23T15:11:07.831Z,99903.47
2022-09-23T15:13:48.248Z,99910.41
2022-09-23T15:16:22.624Z,99902.59
2022-09-23T15:18:57.804Z,99900.69
2022-09-23T15:21:54.197Z,99914.56
2022-09-23T15:24:45.104Z,99896.97
2022-09-23T15:27:33.093Z,99900.59
2022-09-23T15:30:20.001Z,99895.63
2022-09-23T15:39:35.982Z,99887.53
2022-09-23T15:42:03.325Z,99889.66
2022-09-23T15:44:30.089Z,99881.06
2022-09-23T15:47:00.846Z,99880.75
2022-09-23T15:49:31.783Z,99891.47
2022-09-23T15:52:03.491Z,99885.47
2022-09-23T15:54:32.441Z,99893.00
2022-09-23T15:57:00.516Z,99895.88
2022-09-23T15:59:28.786Z,99896.50
2022-09-23T16:01:56.869Z,99891.03
2022-09-23T16:04:23.750Z,99892.97
2022-09-23T16:06:50.503Z,99892.09
2022-09-23T16:09:18.366Z,99895.16
2022-09-23T16:11:47.273Z,99894.75
2022-09-23T16:14:16.311Z,99892.34
2022-09-23T16:16:47.992Z,99891.41
2022-09-23T16:19:15.812Z,99895.63
2022-09-23T16:21:43.230Z,99895.63
2022-09-23T16:24:18.607Z,99897.56
2022-09-23T16:26:48.140Z,99896.56
2022-09-23T16:29:15.358Z,99892.69
2022-09-23T16:31:42.551Z,99899.56
2022-09-23T16:34:09.331Z,99893.81
2022-09-23T16:36:40.614Z,99896.66
2022-09-23T16:39:10.554Z,99909.66
2022-09-23T16:41:37.397Z,99907.13
2022-09-23T16:44:07.585Z,99901.09
2022-09-23T16:46:36.875Z,99901.66
2022-09-23T16:49:03.888Z,99913.09
2022-09-23T16:51:38.143Z,99906.22
2022-09-23T16:54:10.209Z,99903.97
2022-09-23T16:57:48.479Z,99905.97
2022-09-23T17:00:34.754Z,99899.34
2022-09-23T17:03:21.119Z,99902.72
2022-09-23T17:05:48.891Z,99904.94
2022-09-23T17:08:18.412Z,99899.72
2022-09-23T17:10:46.239Z,99904.41
2022-09-23T17:13:16.302Z,99910.50
2022-09-23T17:15:44.150Z,99913.59
2022-09-23T17:18:10.828Z,99915.50
2022-09-23T17:20:38.785Z,99923.81
2022-09-23T17:31:37.188Z,99934.66
2022-09-23T17:34:03.396Z,99939.34
2022-09-23T17:36:30.109Z,99939.38
2022-09-23T17:38:56.735Z,99942.72
2022-09-23T17:41:23.478Z,99937.47
2022-09-23T17:44:39.267Z,99934.44
2022-09-23T17:47:16.246Z,99938.84
2022-09-23T17:49:43.012Z,99942.72
2022-09-23T17:52:09.825Z,99943.84
2022-09-23T17:54:36.601Z,99939.97
2022-09-23T17:57:35.073Z,99942.19
2022-09-23T18:00:34.313Z,99942.75
2022-09-23T18:03:32.447Z,99950.16
2022-09-23T18:06:11.382Z,99948.50
2022-09-23T18:08:41.739Z,99949.88
2022-09-23T18:11:30.878Z,99951.53
2022-09-23T18:14:14.102Z,99956.22
2022-09-23T18:16:47.080Z,99960.91
2022-09-23T18:19:16.597Z,99958.38
2022-09-23T18:21:46.618Z,99959.50
2022-09-23T18:27:09.565Z,99962.53
2022-09-23T18:29:36.287Z,99957.53
2022-09-23T18:32:04.067Z,99970.50
2022-09-23T18:34:31.186Z,99968.00
2022-09-23T18:37:01.147Z,99962.75
2022-09-23T18:39:28.543Z,99964.69
2022-09-23T18:42:05.823Z,99965.81
2022-09-23T18:44:32.968Z,99970.47
2022-09-23T18:46:59.717Z,99973.50
2022-09-23T18:49:45.104Z,99978.47
2022-09-23T18:52:11.866Z,99979.53
2022-09-23T18:54:44.079Z,99972.38
2022-09-23T18:57:14.689Z,99969.06
2022-09-23T18:59:50.745Z,99970.41
2022-09-23T19:02:17.520Z,99978.38
2022-09-23T19:04:44.243Z,99979.47
2022-09-23T19:07:11.957Z,99981.69
2022-09-23T19:09:38.592Z,99974.25
2022-09-23T19:12:05.429Z,99970.56
2022-09-23T19:14:32.274Z,99971.97
2022-09-23T19:16:59.448Z,99973.03
2022-09-23T19:19:27.175Z,99981.03
2022-09-23T19:21:54.797Z,99969.66
2022-09-23T19:24:21.538Z,99974.84
2022-09-23T19:26:56.989Z,99983.13
2022-09-23T19:29:25.365Z,99985.09
2022-09-23T19:31:52.262Z,99986.38
2022-09-23T19:34:23.938Z,99989.94
2022-09-23T19:36:51.699Z,99991.53
2022-09-23T19:39:31.483Z,99989.38
2022-09-23T19:41:58.792Z,99999.00
2022-09-23T19:44:28.754Z,99989.56
2022-09-23T19:47:03.402Z,99995.56
2022-09-23T19:49:31.257Z,100001.34
2022-09-23T19:51:58.054Z,100006.00
2022-09-23T19:54:27.080Z,99999.69
2022-09-23T19:56:54.086Z,100001.84
2022-09-23T19:59:20.802Z,99998.88
2022-09-23T20:01:52.453Z,99994.94
2022-09-23T20:04:19.378Z,100003.66
2022-09-23T20:06:47.657Z,100003.38
2022-09-23T20:09:14.468Z,100008.59
2022-09-23T20:11:43.176Z,100011.59
2022-09-23T20:14:14.163Z,100007.97
2022-09-23T20:16:41.155Z,100006.50
2022-09-23T20:19:08.058Z,100009.22
2022-09-23T20:21:35.512Z,100011.38
2022-09-23T20:24:05.750Z,100014.41
2022-09-23T20:26:54.526Z,100013.84
2022-09-23T20:29:21.409Z,100010.88
2022-09-23T20:31:48.369Z,100010.31
2022-09-23T20:34:15.195Z,100023.22
2022-09-23T20:36:42.551Z,100024.31
2022-09-23T20:39:10.224Z,100019.03
2022-09-23T20:41:41.932Z,100025.41
2022-09-23T20:44:14.183Z,100013.78
2022-09-23T20:46:47.881Z,100017.00
2022-09-23T20:49:16.447Z,100028.53
2022-09-23T20:51:43.310Z,100031.97
2022-09-23T20:54:09.959Z,100024.72
2022-09-23T20:56:42.517Z,100029.09
2022-09-23T20:59:09.973Z,100029.31
2022-09-23T21:01:37.441Z,100027.97
2022-09-23T21:04:06.069Z,100033.16
2022-09-23T21:06:34.998Z,100029.09
2022-09-23T21:09:02.139Z,100031.19
2022-09-23T21:11:30.442Z,100034.38
2022-09-23T21:13:58.710Z,100035.97
2022-09-23T21:16:26.024Z,100033.28
2022-09-23T21:18:54.170Z,100039.88
2022-09-23T21:21:22.413Z,100031.91
2022-09-23T21:23:50.094Z,100035.41
2022-09-23T21:26:23.317Z,100029.22
2022-09-23T21:28:52.084Z,100032.47
2022-09-23T21:31:33.783Z,100026.16
2022-09-23T21:34:06.050Z,100035.19
2022-09-23T21:36:37.208Z,100033.78
2022-09-23T21:39:09.319Z,100035.38
2022-09-23T21:41:37.410Z,100033.41
2022-09-23T21:44:05.325Z,100036.09
2022-09-23T21:46:33.888Z,100032.81
2022-09-23T21:49:02.105Z,100030.66
2022-09-23T21:51:31.753Z,100037.47
2022-09-23T21:53:58.697Z,100034.72
2022-09-23T21:56:30.497Z,100028.66
2022-09-23T21:58:58.690Z,100028.97
2022-09-23T22:01:27.886Z,100034.28
2022-09-23T22:04:18.436Z,100029.88
2022-09-23T22:06:46.139Z,100031.88
2022-09-23T22:09:15.544Z,100033.81
2022-09-23T22:12:01.361Z,100036.81
2022-09-23T22:14:29.758Z,100034.22
2022-09-23T22:16:59.258Z,100038.97
2022-09-23T22:19:32.898Z,100029.91
2022-09-23T22:22:00.137Z,100034.00
2022-09-23T22:24:27.198Z,100036.22
2022-09-23T22:26:54.068Z,100034.50
2022-09-23T22:29:39.574Z,100029.44
2022-09-23T22:32:29.722Z,100034.34
2022-09-23T22:34:57.010Z,100033.75
2022-09-23T22:37:30.343Z,100030.03
2022-09-23T22:39:57.213Z,100040.75
2022-09-23T22:42:24.273Z,100050.69
2022-09-23T22:44:51.741Z,100044.59
2022-09-23T22:47:19.759Z,100045.69
2022-09-23T22:49:47.720Z,100037.44
2022-09-23T22:52:16.281Z,100033.03
2022-09-23T22:54:43.145Z,100041.84
2022-09-23T22:57:09.879Z,100041.16
2022-09-23T22:59:37.631Z,100036.84
2022-09-23T23:02:05.255Z,100038.44
2022-09-23T23:04:32.333Z,100047.53
2022-09-23T23:06:59.403Z,100048.75
2022-09-23T23:09:26.416Z,100044.38
2022-09-23T23:11:53.210Z,100046.50
2022-09-23T23:14:19.995Z,100050.34
2022-09-23T23:16:47.454Z,100047.03
2022-09-23T23:19:17.371Z,100039.38
2022-09-23T23:21:45.340Z,100038.94
2022-09-23T23:24:30.954Z,100032.06
2022-09-23T23:26:57.892Z,100042.19
2022-09-23T23:29:24.532Z,100038.53
2022-09-23T23:31:51.217Z,100038.19
2022-09-23T23:34:20.559Z,100035.69
2022-09-23T23:36:54.919Z,100032.59
2022-09-23T23:39:26.290Z,100037.34
2022-09-23T23:41:58.023Z,100030.38
2022-09-23T23:44:26.217Z,100025.88
2022-09-23T23:46:54.078Z,100032.19
2022-09-23T23:49:21.483Z,100027.22
2022-09-23T23:51:48.463Z,100034.00
2022-09-23T23:54:15.443Z,100031.91
2022-09-23T23:56:42.449Z,100030.50
2022-09-23T23:59:09.103Z,100024.31
